Terminal Aerodrome Forecast
Issued by NWS

Home | Current Version | Previous Version | Text Only | Print | Product List | Glossary On
Versions: 1 2 3 4 5 6 7 8 9 10 11 12 13 14 15 16 17 18 19 20
671
FTUS43 KMQT 241140 AAA
TAFIWD
TAF AMD
KIWD 241140Z 2412/2512 00000KT 1/4SM FG OVC002
     FM241300 12003KT 2SM BR BKN003
     FM241400 12004KT 5SM BR SCT003
     FM241500 12003KT P6SM SKC
     FM241900 33006KT P6SM SKC
     FM250900 18008KT P6SM SKC=

USA.gov is the U.S. government's official web portal to all federal, state and local government web resources and services.